createdAt,value
2022-10-05T00:02:19.120Z,28.02
2022-10-05T00:04:48.066Z,25.75
2022-10-05T00:07:19.311Z,25.95
2022-10-05T00:09:56.332Z,28.65
2022-10-05T00:12:24.476Z,26.15
2022-10-05T00:14:53.595Z,26.70
2022-10-05T00:17:22.500Z,26.58
2022-10-05T00:19:54.106Z,26.85
2022-10-05T00:22:34.100Z,26.08
2022-10-05T00:25:03.229Z,28.38
2022-10-05T00:27:37.441Z,30.48
2022-10-05T00:30:26.044Z,28.98
2022-10-05T00:32:57.255Z,31.20
2022-10-05T00:35:28.233Z,29.35
2022-10-05T00:37:55.832Z,33.08
2022-10-05T00:40:50.334Z,28.10
2022-10-05T00:43:26.982Z,28.95
2022-10-05T00:46:07.855Z,31.08
2022-10-05T00:48:49.767Z,32.65
2022-10-05T00:51:27.217Z,30.73
2022-10-05T00:54:19.011Z,30.60
2022-10-05T00:56:51.765Z,30.00
2022-10-05T00:59:56.120Z,29.30
2022-10-05T01:02:41.659Z,31.77
2022-10-05T01:05:14.558Z,31.38
2022-10-05T01:07:50.545Z,30.65
2022-10-05T01:10:35.402Z,29.75
2022-10-05T01:13:23.522Z,31.30
2022-10-05T01:16:07.335Z,29.00
2022-10-05T01:18:57.498Z,31.58
2022-10-05T01:21:26.875Z,30.80
2022-10-05T01:24:11.702Z,34.25
2022-10-05T01:27:07.437Z,33.15
2022-10-05T01:30:14.014Z,28.98
2022-10-05T01:32:52.589Z,32.50
2022-10-05T01:35:25.141Z,33.05
2022-10-05T01:37:55.013Z,29.30
2022-10-05T01:40:36.468Z,27.95
2022-10-05T01:43:27.479Z,35.15
2022-10-05T01:46:06.698Z,28.58
2022-10-05T01:48:36.328Z,33.22
2022-10-05T01:51:12.913Z,32.80
2022-10-05T01:54:01.380Z,33.05
2022-10-05T01:56:56.769Z,30.08
2022-10-05T01:59:40.290Z,32.13
2022-10-05T02:02:11.774Z,34.75
2022-10-05T02:05:04.686Z,36.35
2022-10-05T02:07:43.997Z,31.02
2022-10-05T02:10:55.924Z,34.50
2022-10-05T02:13:29.249Z,34.03
2022-10-05T02:16:03.279Z,33.17
2022-10-05T02:18:41.461Z,33.47
2022-10-05T02:21:09.004Z,33.10
2022-10-05T02:23:40.775Z,34.58
2022-10-05T02:26:10.974Z,36.10
2022-10-05T02:28:44.928Z,34.47
2022-10-05T02:31:15.867Z,31.95
2022-10-05T02:33:42.609Z,30.47
2022-10-05T02:36:23.367Z,32.45
2022-10-05T02:39:06.517Z,30.83
2022-10-05T02:41:50.508Z,33.88
2022-10-05T02:44:34.360Z,34.80
2022-10-05T02:47:08.103Z,33.60
2022-10-05T02:49:43.563Z,35.85
2022-10-05T02:52:23.288Z,33.60
2022-10-05T02:54:54.229Z,32.67
2022-10-05T02:57:24.172Z,33.70
2022-10-05T03:00:21.857Z,32.28
2022-10-05T03:02:52.251Z,35.13
2022-10-05T03:05:22.240Z,34.33
2022-10-05T03:07:58.392Z,33.88
2022-10-05T03:10:34.038Z,35.17
2022-10-05T03:13:06.903Z,31.48
2022-10-05T03:15:58.950Z,31.30
2022-10-05T03:18:43.684Z,33.45
2022-10-05T03:21:28.891Z,32.72
2022-10-05T03:24:01.642Z,32.20
2022-10-05T03:26:40.392Z,36.80
2022-10-05T03:29:34.553Z,34.20
2022-10-05T03:32:27.112Z,32.60
2022-10-05T03:35:00.369Z,31.52
2022-10-05T03:37:32.241Z,33.72
2022-10-05T03:43:00.001Z,32.63
2022-10-05T03:45:46.422Z,33.22
2022-10-05T03:48:25.956Z,33.78
2022-10-05T03:51:08.063Z,30.70
2022-10-05T03:54:03.244Z,29.73
2022-10-05T03:56:45.188Z,28.45
2022-10-05T03:59:58.589Z,32.10
2022-10-05T04:02:34.983Z,29.02
2022-10-05T04:05:10.543Z,29.60
2022-10-05T04:07:47.471Z,31.38
2022-10-05T04:10:25.818Z,29.30
2022-10-05T04:13:09.703Z,27.55
2022-10-05T04:16:05.646Z,28.73
2022-10-05T04:18:40.692Z,34.65
2022-10-05T04:21:23.345Z,29.92
2022-10-05T04:24:06.123Z,28.00
2022-10-05T04:26:45.828Z,31.13
2022-10-05T04:29:17.421Z,29.08
2022-10-05T04:32:13.256Z,29.48
2022-10-05T04:35:20.489Z,29.70
2022-10-05T04:37:59.717Z,30.83
2022-10-05T04:40:48.658Z,27.23
2022-10-05T04:43:25.288Z,30.40
2022-10-05T04:46:13.479Z,29.73
2022-10-05T04:48:40.300Z,30.98
2022-10-05T04:51:07.018Z,29.73
2022-10-05T04:53:58.774Z,28.98
2022-10-05T04:56:41.653Z,27.98
2022-10-05T04:59:23.500Z,30.35
2022-10-05T05:02:25.517Z,30.30
2022-10-05T05:05:07.274Z,31.35
2022-10-05T05:07:40.170Z,31.42
2022-10-05T05:10:39.568Z,29.60
2022-10-05T05:13:28.046Z,30.25
2022-10-05T05:16:16.630Z,30.27
2022-10-05T05:18:55.340Z,28.35
2022-10-05T05:21:52.939Z,30.38
2022-10-05T05:24:25.815Z,27.25
2022-10-05T05:27:16.319Z,32.90
2022-10-05T05:29:50.467Z,29.02
2022-10-05T05:32:30.963Z,30.25
2022-10-05T05:35:22.339Z,30.88
2022-10-05T05:38:13.375Z,29.75
2022-10-05T05:40:56.213Z,28.85
2022-10-05T05:43:34.557Z,30.27
2022-10-05T05:46:45.004Z,33.65
2022-10-05T05:49:33.589Z,29.08
2022-10-05T05:52:21.952Z,28.92
2022-10-05T05:54:58.719Z,29.40
2022-10-05T05:57:32.290Z,27.70
2022-10-05T06:00:31.465Z,30.20
2022-10-05T06:03:09.331Z,30.33
2022-10-05T06:05:54.501Z,31.38
2022-10-05T06:08:27.056Z,29.70
2022-10-05T06:11:00.156Z,29.17
2022-10-05T06:13:39.994Z,36.25
2022-10-05T06:16:24.744Z,27.65
2022-10-05T06:19:10.730Z,26.67
2022-10-05T06:21:51.946Z,27.70
2022-10-05T06:24:29.109Z,24.50
2022-10-05T06:27:28.388Z,29.42
2022-10-05T06:30:07.949Z,32.58
2022-10-05T06:32:39.623Z,29.00
2022-10-05T06:35:48.221Z,27.60
2022-10-05T06:38:20.744Z,27.35
2022-10-05T06:40:57.607Z,30.60
2022-10-05T06:43:30.028Z,29.90
2022-10-05T06:46:22.945Z,36.13
2022-10-05T06:48:49.669Z,26.13
2022-10-05T06:51:55.019Z,29.65
2022-10-05T06:54:24.793Z,28.40
2022-10-05T06:56:56.389Z,25.80
2022-10-05T06:59:23.012Z,28.33
2022-10-05T07:02:06.934Z,28.58
2022-10-05T07:05:08.746Z,28.50
2022-10-05T07:07:46.236Z,25.65
2022-10-05T07:10:36.489Z,28.70
2022-10-05T07:13:26.750Z,30.98
2022-10-05T07:16:11.769Z,25.83
2022-10-05T07:18:53.452Z,26.55
2022-10-05T07:21:26.130Z,33.45
2022-10-05T07:24:01.757Z,26.75
2022-10-05T07:26:42.777Z,32.42
2022-10-05T07:29:51.543Z,36.47
2022-10-05T07:32:42.540Z,49.55
2022-10-05T07:35:48.388Z,29.15
2022-10-05T07:38:25.012Z,24.75
2022-10-05T07:41:06.129Z,61.38
2022-10-05T07:44:03.416Z,29.58
2022-10-05T07:47:18.226Z,28.08
2022-10-05T07:50:21.285Z,28.10
2022-10-05T07:52:56.926Z,25.20
2022-10-05T07:55:40.277Z,21.40
2022-10-05T07:58:29.461Z,22.15
2022-10-05T08:01:09.546Z,23.27
2022-10-05T08:04:00.717Z,23.55
2022-10-05T08:06:51.670Z,25.45
2022-10-05T08:09:34.239Z,22.58
2022-10-05T08:12:23.004Z,22.40
2022-10-05T08:14:55.268Z,21.85
2022-10-05T08:17:45.934Z,19.65
2022-10-05T08:20:27.739Z,22.02
2022-10-05T08:25:59.307Z,30.83
2022-10-05T08:28:35.428Z,26.60
2022-10-05T08:31:13.682Z,24.88
2022-10-05T08:34:04.764Z,22.88
2022-10-05T08:37:01.819Z,20.57
2022-10-05T08:39:35.370Z,22.02
2022-10-05T08:42:10.989Z,23.65
2022-10-05T08:45:28.354Z,20.88
2022-10-05T08:48:38.535Z,21.63
2022-10-05T08:51:50.144Z,24.10
2022-10-05T08:54:25.625Z,24.27
2022-10-05T08:57:18.175Z,26.33
2022-10-05T09:00:05.526Z,23.15
2022-10-05T09:03:01.882Z,22.92
2022-10-05T09:05:46.641Z,20.73
2022-10-05T09:08:16.203Z,20.17
2022-10-05T09:11:00.617Z,23.48
2022-10-05T09:13:54.619Z,24.63
2022-10-05T09:16:21.459Z,22.52
2022-10-05T09:18:54.874Z,26.27
2022-10-05T09:21:24.575Z,23.75
2022-10-05T09:24:14.904Z,30.52
2022-10-05T09:27:18.912Z,21.70
2022-10-05T09:30:03.340Z,21.33
2022-10-05T09:32:35.946Z,19.17
2022-10-05T09:35:17.482Z,19.23
2022-10-05T09:37:56.459Z,23.85
2022-10-05T09:40:59.750Z,20.65
2022-10-05T09:43:56.941Z,20.90
2022-10-05T09:46:56.263Z,22.63
2022-10-05T09:49:57.459Z,17.60
2022-10-05T09:52:51.521Z,20.98
2022-10-05T09:55:42.648Z,20.20
2022-10-05T09:58:36.673Z,23.90
2022-10-05T10:01:09.803Z,26.02
2022-10-05T10:04:20.398Z,22.45
2022-10-05T10:07:22.253Z,19.83
2022-10-05T10:10:16.046Z,17.52
2022-10-05T10:13:16.753Z,22.77
2022-10-05T10:16:11.557Z,20.60
2022-10-05T10:18:57.093Z,17.98
2022-10-05T10:21:45.840Z,17.42
2022-10-05T10:24:48.474Z,24.25
2022-10-05T10:27:33.321Z,21.80
2022-10-05T10:30:27.450Z,18.60
2022-10-05T10:33:13.763Z,22.58
2022-10-05T10:35:50.066Z,18.38
2022-10-05T10:38:29.255Z,19.83
2022-10-05T10:41:31.849Z,15.70
2022-10-05T10:44:34.104Z,17.98
2022-10-05T10:47:31.104Z,16.58
2022-10-05T10:50:16.426Z,22.75
2022-10-05T10:52:57.724Z,19.90
2022-10-05T10:55:36.153Z,17.20
2022-10-05T10:58:02.845Z,20.08
2022-10-05T11:00:38.327Z,17.40
2022-10-05T11:03:32.255Z,14.82
2022-10-05T11:06:37.946Z,15.70
2022-10-05T11:09:28.306Z,16.50
2022-10-05T11:12:17.639Z,18.15
2022-10-05T11:15:05.516Z,15.15
2022-10-05T11:18:10.333Z,16.50
2022-10-05T11:21:09.566Z,18.20
2022-10-05T11:23:45.820Z,18.75
2022-10-05T11:26:44.854Z,20.70
2022-10-05T11:29:46.046Z,20.10
2022-10-05T11:32:28.062Z,18.85
2022-10-05T11:35:24.660Z,18.85
2022-10-05T11:38:19.122Z,19.77
2022-10-05T11:41:27.981Z,21.88
2022-10-05T11:44:06.334Z,17.88
2022-10-05T11:46:46.172Z,26.92
2022-10-05T11:49:13.012Z,18.70
2022-10-05T11:51:51.774Z,21.13
2022-10-05T11:55:09.157Z,18.88
2022-10-05T11:57:50.715Z,17.92
2022-10-05T12:00:23.220Z,23.02
2022-10-05T12:03:18.723Z,23.00
2022-10-05T12:06:13.081Z,22.25
2022-10-05T12:09:22.311Z,19.42
2022-10-05T12:12:00.355Z,17.05
2022-10-05T12:14:38.905Z,16.42
2022-10-05T12:17:20.149Z,22.77
2022-10-05T12:19:59.740Z,22.77
2022-10-05T12:22:41.684Z,17.70
2022-10-05T12:25:32.278Z,17.48
2022-10-05T12:28:04.980Z,21.33
2022-10-05T12:30:53.579Z,24.15
2022-10-05T12:33:30.983Z,20.17
2022-10-05T12:36:52.457Z,19.98
2022-10-05T12:40:06.260Z,21.50
2022-10-05T12:42:41.906Z,24.60
2022-10-05T12:45:29.854Z,18.50
2022-10-05T12:48:27.196Z,22.15
2022-10-05T12:51:19.791Z,19.58
2022-10-05T12:54:01.376Z,50.13
2022-10-05T12:59:25.981Z,28.17
2022-10-05T13:02:15.117Z,23.83
2022-10-05T13:04:59.907Z,20.92
2022-10-05T13:07:35.297Z,23.75
2022-10-05T13:10:20.620Z,21.65
2022-10-05T13:12:50.160Z,20.80
2022-10-05T13:15:36.757Z,19.80
2022-10-05T13:18:45.172Z,19.65
2022-10-05T13:21:27.094Z,22.33
2022-10-05T13:23:58.741Z,20.20
2022-10-05T13:26:39.859Z,23.55
2022-10-05T13:29:37.389Z,27.35
2022-10-05T13:32:12.597Z,22.25
2022-10-05T13:34:54.572Z,27.95
2022-10-05T13:37:41.432Z,21.27
2022-10-05T13:40:15.549Z,23.88
2022-10-05T13:43:04.069Z,78.60
2022-10-05T13:45:40.274Z,27.23
2022-10-05T13:48:25.521Z,24.13
2022-10-05T13:50:59.962Z,76.13
2022-10-05T13:53:47.993Z,22.45
2022-10-05T13:56:25.717Z,21.38
2022-10-05T13:59:10.175Z,18.35
2022-10-05T14:01:59.629Z,22.08
2022-10-05T14:04:43.741Z,23.63
2022-10-05T14:07:38.387Z,21.42
2022-10-05T14:10:12.892Z,21.38
2022-10-05T14:12:42.619Z,24.77
2022-10-05T14:15:22.915Z,21.65
2022-10-05T14:17:52.512Z,25.08
2022-10-05T14:20:26.923Z,25.40
2022-10-05T14:23:00.760Z,39.58
2022-10-05T14:25:30.073Z,22.40
2022-10-05T14:28:01.779Z,20.67
2022-10-05T14:30:32.651Z,21.70
2022-10-05T14:33:05.474Z,20.77
2022-10-05T14:35:52.862Z,20.02
2022-10-05T14:38:29.371Z,25.40
2022-10-05T14:41:07.941Z,20.65
2022-10-05T14:43:35.480Z,19.80
2022-10-05T14:46:23.107Z,26.08
2022-10-05T14:49:13.465Z,28.25
2022-10-05T14:51:42.212Z,25.02
2022-10-05T14:54:46.827Z,22.38
2022-10-05T14:57:16.314Z,23.00
2022-10-05T14:59:48.447Z,22.45
2022-10-05T15:02:27.375Z,29.77
2022-10-05T15:05:18.996Z,40.60
2022-10-05T15:07:49.300Z,24.38
2022-10-05T15:10:40.591Z,25.08
2022-10-05T15:13:20.466Z,24.42
2022-10-05T15:16:21.097Z,25.90
2022-10-05T15:18:49.044Z,27.60
2022-10-05T15:21:40.734Z,20.73
2022-10-05T15:24:33.017Z,24.48
2022-10-05T15:27:04.011Z,32.25
2022-10-05T15:29:35.167Z,23.48
2022-10-05T15:32:26.567Z,24.80
2022-10-05T15:35:35.997Z,29.58
2022-10-05T15:38:11.915Z,41.30
2022-10-05T15:41:09.473Z,27.30
2022-10-05T15:43:55.132Z,25.33
2022-10-05T15:46:50.873Z,27.75
2022-10-05T15:49:20.540Z,25.55
2022-10-05T15:52:05.146Z,46.10
2022-10-05T15:55:09.505Z,24.08
2022-10-05T15:57:53.314Z,25.20
2022-10-05T16:00:22.273Z,27.50
2022-10-05T16:03:16.897Z,25.38
2022-10-05T16:06:15.267Z,26.60
2022-10-05T16:09:08.477Z,25.27
2022-10-05T16:11:44.258Z,25.65
2022-10-05T16:14:46.269Z,28.60
2022-10-05T16:20:03.408Z,25.83
2022-10-05T16:22:33.165Z,26.85
2022-10-05T16:25:22.243Z,23.63
2022-10-05T16:28:21.330Z,25.15
2022-10-05T16:30:58.756Z,24.85
2022-10-05T16:33:46.627Z,26.83
2022-10-05T16:36:32.610Z,26.00
2022-10-05T16:39:34.841Z,25.42
2022-10-05T16:42:01.513Z,30.55
2022-10-05T16:44:57.428Z,24.42
2022-10-05T16:47:53.507Z,25.20
2022-10-05T16:50:27.509Z,24.40
2022-10-05T16:53:00.085Z,26.60
2022-10-05T16:55:38.990Z,25.77
2022-10-05T16:58:33.467Z,28.98
2022-10-05T17:01:00.154Z,27.77
2022-10-05T17:03:36.091Z,30.90
2022-10-05T17:06:08.744Z,26.60
2022-10-05T17:08:57.728Z,30.58
2022-10-05T17:11:45.746Z,34.95
2022-10-05T17:14:29.062Z,34.65
2022-10-05T17:17:26.284Z,30.80
2022-10-05T17:20:19.927Z,34.40
2022-10-05T17:22:59.113Z,32.05
2022-10-05T17:25:49.738Z,32.58
2022-10-05T17:28:21.857Z,33.13
2022-10-05T17:30:58.702Z,34.55
2022-10-05T17:33:30.555Z,34.22
2022-10-05T17:38:31.522Z,32.88
2022-10-05T17:41:05.489Z,32.83
2022-10-05T17:43:33.576Z,32.15
2022-10-05T17:46:06.633Z,32.67
2022-10-05T17:48:48.482Z,32.83
2022-10-05T17:51:56.851Z,39.08
2022-10-05T17:54:49.384Z,33.55
2022-10-05T17:57:19.406Z,38.88
2022-10-05T17:59:50.403Z,33.25
2022-10-05T18:02:22.138Z,36.47
2022-10-05T18:05:16.158Z,36.65
2022-10-05T18:07:48.689Z,35.05
2022-10-05T18:10:29.710Z,37.08
2022-10-05T18:12:59.382Z,36.90
2022-10-05T18:15:26.097Z,36.83
2022-10-05T18:17:56.063Z,38.35
2022-10-05T18:20:28.769Z,37.80
2022-10-05T18:23:07.568Z,36.85
2022-10-05T18:25:43.790Z,35.28
2022-10-05T18:28:43.141Z,39.72
2022-10-05T18:31:34.221Z,41.13
2022-10-05T18:34:19.801Z,47.95
2022-10-05T18:37:04.134Z,41.55
2022-10-05T18:39:51.927Z,41.65
2022-10-05T18:42:48.699Z,41.33
2022-10-05T18:45:18.742Z,42.30
2022-10-05T18:48:03.323Z,37.50
2022-10-05T18:50:40.810Z,41.58
2022-10-05T18:53:28.612Z,42.28
2022-10-05T18:56:02.271Z,38.70
2022-10-05T18:58:51.050Z,41.72
2022-10-05T19:02:04.912Z,45.33
2022-10-05T19:04:50.553Z,42.42
2022-10-05T19:07:23.145Z,38.97
2022-10-05T19:10:03.035Z,39.50
2022-10-05T19:13:04.954Z,45.20
2022-10-05T19:15:46.431Z,44.92
2022-10-05T19:18:30.617Z,44.95
2022-10-05T19:21:21.474Z,44.08
2022-10-05T19:23:58.147Z,44.88
2022-10-05T19:26:49.849Z,44.42
2022-10-05T19:29:35.090Z,41.92
2022-10-05T19:32:03.759Z,42.20
2022-10-05T19:34:54.639Z,51.83
2022-10-05T19:38:00.613Z,45.75
2022-10-05T19:40:30.450Z,48.67
2022-10-05T19:43:10.523Z,44.78
2022-10-05T19:45:52.414Z,42.60
2022-10-05T19:48:40.584Z,46.03
2022-10-05T19:51:16.010Z,49.50
2022-10-05T19:53:49.929Z,44.60
2022-10-05T19:56:20.448Z,44.90
2022-10-05T19:58:49.005Z,44.38
2022-10-05T20:01:40.649Z,43.20
2022-10-05T20:04:08.083Z,48.83
2022-10-05T20:06:34.948Z,46.60
2022-10-05T20:09:19.883Z,46.38
2022-10-05T20:11:51.403Z,46.35
2022-10-05T20:14:20.881Z,42.75
2022-10-05T20:17:06.267Z,44.20
2022-10-05T20:19:51.444Z,42.30
2022-10-05T20:22:24.083Z,43.85
2022-10-05T20:24:53.545Z,47.63
2022-10-05T20:27:46.705Z,44.13
2022-10-05T20:30:19.706Z,50.85
2022-10-05T20:32:51.591Z,48.47
2022-10-05T20:37:48.121Z,46.35
2022-10-05T20:40:14.959Z,48.17
2022-10-05T20:42:41.750Z,48.35
2022-10-05T20:45:09.450Z,47.95
2022-10-05T20:47:37.564Z,48.20
2022-10-05T20:50:09.085Z,50.20
2022-10-05T20:52:37.381Z,49.95
2022-10-05T20:55:10.003Z,51.20
2022-10-05T20:57:41.536Z,49.97
2022-10-05T21:00:12.535Z,51.05
2022-10-05T21:02:39.557Z,51.40
2022-10-05T21:05:07.652Z,51.03
2022-10-05T21:07:34.995Z,48.35
2022-10-05T21:10:03.721Z,49.17
2022-10-05T21:12:30.713Z,52.58
2022-10-05T21:14:59.577Z,52.67
2022-10-05T21:17:26.383Z,54.20
2022-10-05T21:19:53.200Z,54.05
2022-10-05T21:22:19.976Z,54.47
2022-10-05T21:24:46.752Z,54.75
2022-10-05T21:27:13.506Z,52.92
2022-10-05T21:29:41.344Z,53.42
2022-10-05T21:32:11.630Z,52.42
2022-10-05T21:34:39.618Z,55.42
2022-10-05T21:37:07.040Z,49.75
2022-10-05T21:39:35.086Z,54.47
2022-10-05T21:42:02.074Z,51.85
2022-10-05T21:44:28.811Z,56.90
2022-10-05T21:46:56.542Z,56.80
2022-10-05T21:49:24.570Z,56.28
2022-10-05T21:51:51.490Z,60.00
2022-10-05T21:54:21.288Z,53.38
2022-10-05T21:56:54.597Z,56.92
2022-10-05T21:59:26.508Z,58.25
2022-10-05T22:04:20.036Z,59.35
2022-10-05T22:06:46.850Z,66.65
2022-10-05T22:09:13.666Z,60.15
2022-10-05T22:11:40.462Z,59.75
2022-10-05T22:14:07.194Z,57.30
2022-10-05T22:16:36.657Z,60.00
2022-10-05T22:19:06.137Z,59.22
2022-10-05T22:21:37.775Z,62.65
2022-10-05T22:24:04.824Z,59.92
2022-10-05T22:26:31.742Z,63.20
2022-10-05T22:28:58.705Z,59.63
2022-10-05T22:31:25.579Z,59.33
2022-10-05T22:33:52.719Z,60.72
2022-10-05T22:36:19.614Z,65.07
2022-10-05T22:38:47.607Z,56.08
2022-10-05T22:41:16.455Z,63.25
2022-10-05T22:43:43.234Z,68.60
2022-10-05T22:46:11.862Z,64.88
2022-10-05T22:48:39.380Z,62.50
2022-10-05T22:51:06.711Z,63.47
2022-10-05T22:53:33.658Z,64.38
2022-10-05T22:56:05.359Z,62.92
2022-10-05T22:58:32.248Z,64.25
2022-10-05T23:01:07.496Z,69.72
2022-10-05T23:03:35.302Z,65.53
2022-10-05T23:06:09.753Z,72.18
2022-10-05T23:08:37.827Z,64.85
2022-10-05T23:11:09.984Z,65.22
2022-10-05T23:13:36.825Z,62.45
2022-10-05T23:16:09.143Z,70.57
2022-10-05T23:18:36.456Z,63.97
2022-10-05T23:21:03.795Z,65.22
2022-10-05T23:23:30.490Z,67.60
2022-10-05T23:26:01.563Z,74.63
2022-10-05T23:28:29.413Z,70.07
2022-10-05T23:31:07.017Z,66.88
2022-10-05T23:33:34.426Z,70.78
2022-10-05T23:36:04.028Z,63.45
2022-10-05T23:38:31.322Z,67.72
2022-10-05T23:40:58.912Z,63.97
2022-10-05T23:43:26.872Z,76.47
2022-10-05T23:45:54.276Z,71.22
2022-10-05T23:48:21.583Z,69.70
2022-10-05T23:50:49.579Z,69.70
2022-10-05T23:53:17.363Z,69.25
2022-10-05T23:55:44.360Z,72.25
2022-10-05T23:58:11.202Z,68.05
